createdAt,value
2023-05-18T00:00:53.274Z,5.00
2023-05-18T00:01:53.557Z,5.20
2023-05-18T00:02:53.970Z,4.30
2023-05-18T00:03:54.404Z,5.30
2023-05-18T00:04:54.548Z,4.60
2023-05-18T00:05:54.644Z,5.50
2023-05-18T00:06:54.968Z,5.30
2023-05-18T00:07:55.264Z,5.30
2023-05-18T00:08:55.603Z,5.40
2023-05-18T00:09:55.917Z,5.20
2023-05-18T00:10:56.150Z,5.50
2023-05-18T00:11:56.498Z,4.90
2023-05-18T00:12:56.838Z,5.20
2023-05-18T00:13:57.118Z,5.20
2023-05-18T00:14:57.371Z,5.70
2023-05-18T00:15:57.849Z,5.10
2023-05-18T00:16:57.987Z,5.40
2023-05-18T00:17:58.242Z,5.20
2023-05-18T00:18:58.657Z,5.40
2023-05-18T00:19:58.796Z,5.20
2023-05-18T00:20:59.270Z,5.00
2023-05-18T00:21:59.470Z,5.90
2023-05-18T00:22:59.768Z,5.80
2023-05-18T00:24:00.095Z,5.60
2023-05-18T00:25:00.371Z,5.00
2023-05-18T00:26:00.693Z,5.40
2023-05-18T00:27:01.101Z,5.70
2023-05-18T00:28:01.310Z,5.20
2023-05-18T00:29:01.569Z,5.00
2023-05-18T00:30:01.789Z,5.20
2023-05-18T00:31:02.063Z,5.80
2023-05-18T00:32:02.443Z,5.30
2023-05-18T00:33:02.650Z,5.90
2023-05-18T00:34:02.796Z,5.70
2023-05-18T00:35:03.176Z,6.00
2023-05-18T00:36:03.386Z,5.60
2023-05-18T00:37:03.745Z,5.30
2023-05-18T00:38:04.027Z,5.40
2023-05-18T00:39:04.372Z,5.30
2023-05-18T00:40:04.734Z,6.20
2023-05-18T00:41:04.933Z,6.00
2023-05-18T00:42:05.202Z,5.70
2023-05-18T00:43:05.497Z,6.40
2023-05-18T00:44:05.806Z,6.30
2023-05-18T00:45:06.114Z,6.70
2023-05-18T00:46:06.474Z,6.70
2023-05-18T00:47:06.799Z,6.80
2023-05-18T00:48:07.317Z,5.70
2023-05-18T00:49:07.357Z,6.20
2023-05-18T00:50:07.626Z,5.90
2023-05-18T00:51:07.934Z,5.80
2023-05-18T00:52:08.281Z,5.10
2023-05-18T00:53:08.576Z,6.00
2023-05-18T00:54:08.890Z,5.90
2023-05-18T00:55:09.197Z,6.10
2023-05-18T00:56:09.521Z,6.00
2023-05-18T00:57:09.830Z,5.80
2023-05-18T00:58:10.127Z,5.70
2023-05-18T00:59:10.525Z,5.70
2023-05-18T01:00:10.717Z,6.00
2023-05-18T01:01:11.009Z,6.00
2023-05-18T01:02:11.257Z,5.20
2023-05-18T01:03:11.692Z,6.00
2023-05-18T01:04:11.784Z,5.50
2023-05-18T01:05:12.090Z,5.90
2023-05-18T01:06:12.635Z,5.60
2023-05-18T01:07:12.740Z,5.40
2023-05-18T01:08:12.902Z,5.90
2023-05-18T01:09:26.620Z,5.10
2023-05-18T01:14:10.073Z,5.50
2023-05-18T01:15:10.361Z,5.70
2023-05-18T01:16:10.652Z,5.60
2023-05-18T01:17:11.041Z,5.90
2023-05-18T01:18:11.202Z,5.60
2023-05-18T01:19:11.467Z,6.00
2023-05-18T01:20:11.827Z,6.10
2023-05-18T01:21:12.076Z,5.90
2023-05-18T01:22:12.389Z,5.70
2023-05-18T01:23:12.677Z,6.00
2023-05-18T01:24:12.995Z,6.10
2023-05-18T01:25:13.305Z,5.70
2023-05-18T01:26:13.552Z,6.20
2023-05-18T01:27:13.871Z,6.00
2023-05-18T01:28:14.128Z,5.60
2023-05-18T01:29:14.465Z,6.80
2023-05-18T01:30:14.777Z,6.80
2023-05-18T01:31:15.088Z,6.20
2023-05-18T01:32:15.352Z,6.30
2023-05-18T01:33:15.671Z,5.70
2023-05-18T01:34:15.970Z,6.30
2023-05-18T01:35:16.257Z,6.60
2023-05-18T01:36:16.515Z,6.60
2023-05-18T01:37:16.810Z,6.00
2023-05-18T01:38:17.106Z,5.80
2023-05-18T01:39:17.390Z,6.10
2023-05-18T01:40:17.678Z,5.50
2023-05-18T01:41:17.884Z,5.90
2023-05-18T01:42:18.175Z,5.10
2023-05-18T01:43:18.463Z,5.90
2023-05-18T01:44:18.748Z,5.70
2023-05-18T01:45:19.086Z,5.70
2023-05-18T01:46:19.366Z,5.50
2023-05-18T01:47:19.644Z,6.00
2023-05-18T01:48:19.952Z,5.60
2023-05-18T01:49:20.213Z,5.70
2023-05-18T01:50:20.538Z,5.40
2023-05-18T01:51:20.832Z,5.40
2023-05-18T01:52:21.127Z,6.00
2023-05-18T01:53:21.513Z,5.90
2023-05-18T01:54:21.734Z,5.50
2023-05-18T01:55:22.048Z,5.60
2023-05-18T01:56:22.343Z,6.20
2023-05-18T01:57:22.659Z,5.70
2023-05-18T01:58:22.992Z,5.60
2023-05-18T01:59:23.265Z,6.20
2023-05-18T02:00:23.581Z,5.80
2023-05-18T02:01:23.879Z,6.80
2023-05-18T02:02:24.208Z,6.50
2023-05-18T02:03:24.574Z,6.70
2023-05-18T02:04:24.735Z,5.60
2023-05-18T02:05:25.105Z,5.60
2023-05-18T02:06:25.346Z,6.30
2023-05-18T02:07:25.672Z,6.40
2023-05-18T02:08:26.036Z,6.50
2023-05-18T02:09:26.348Z,6.30
2023-05-18T02:10:26.628Z,6.60
2023-05-18T02:11:26.884Z,7.10
2023-05-18T02:12:27.195Z,6.50
2023-05-18T02:13:27.523Z,6.50
2023-05-18T02:14:27.821Z,6.60
2023-05-18T02:15:28.217Z,6.70
2023-05-18T02:16:28.475Z,6.50
2023-05-18T02:17:28.751Z,6.10
2023-05-18T02:18:28.992Z,6.40
2023-05-18T02:19:29.309Z,6.80
2023-05-18T02:20:30.364Z,6.50
2023-05-18T02:21:29.917Z,6.70
2023-05-18T02:22:30.212Z,7.30
2023-05-18T02:23:30.482Z,6.40
2023-05-18T02:24:30.808Z,7.30
2023-05-18T02:25:31.227Z,6.90
2023-05-18T02:26:31.392Z,7.00
2023-05-18T02:27:31.693Z,6.60
2023-05-18T02:28:31.966Z,7.00
2023-05-18T02:29:32.286Z,6.60
2023-05-18T02:30:32.593Z,6.70
2023-05-18T02:31:32.892Z,6.60
2023-05-18T02:32:33.203Z,6.70
2023-05-18T02:33:33.487Z,7.00
2023-05-18T02:34:33.821Z,6.70
2023-05-18T02:35:34.075Z,6.50
2023-05-18T02:36:34.375Z,6.70
2023-05-18T02:37:34.683Z,6.20
2023-05-18T02:38:34.996Z,6.30
2023-05-18T02:39:35.268Z,6.50
2023-05-18T02:40:35.553Z,6.30
2023-05-18T02:41:35.859Z,6.50
2023-05-18T02:42:36.199Z,6.90
2023-05-18T02:43:36.493Z,7.50
2023-05-18T02:44:36.795Z,6.50
2023-05-18T02:45:37.115Z,6.70
2023-05-18T02:46:37.398Z,7.60
2023-05-18T02:47:37.761Z,7.50
2023-05-18T02:48:38.016Z,6.70
2023-05-18T02:49:38.316Z,7.20
2023-05-18T02:50:38.571Z,6.80
2023-05-18T02:51:38.861Z,6.80
2023-05-18T02:52:39.187Z,6.50
2023-05-18T02:53:39.459Z,6.60
2023-05-18T02:54:39.811Z,6.10
2023-05-18T02:55:40.055Z,7.00
2023-05-18T02:56:40.418Z,6.90
2023-05-18T02:57:40.842Z,7.00
2023-05-18T02:58:40.901Z,6.90
2023-05-18T02:59:41.298Z,6.80
2023-05-18T03:00:41.476Z,7.90
2023-05-18T03:01:41.875Z,7.30
2023-05-18T03:02:42.111Z,7.50
2023-05-18T03:03:42.690Z,8.30
2023-05-18T03:04:42.805Z,8.10
2023-05-18T03:05:42.948Z,7.50
2023-05-18T03:06:43.272Z,7.80
2023-05-18T03:07:43.540Z,7.10
2023-05-18T03:08:44.086Z,7.20
2023-05-18T03:09:44.269Z,7.70
2023-05-18T03:10:44.417Z,8.00
2023-05-18T03:11:44.703Z,7.50
2023-05-18T03:12:45.091Z,7.80
2023-05-18T03:13:45.275Z,8.40
2023-05-18T03:14:45.640Z,7.70
2023-05-18T03:15:45.953Z,6.80
2023-05-18T03:16:46.432Z,6.70
2023-05-18T03:17:46.510Z,7.10
2023-05-18T03:18:46.966Z,7.90
2023-05-18T03:19:47.120Z,7.00
2023-05-18T03:20:47.526Z,8.00
2023-05-18T03:21:47.659Z,7.90
2023-05-18T03:22:47.995Z,7.70
2023-05-18T03:23:48.443Z,7.10
2023-05-18T03:24:48.703Z,7.30
2023-05-18T03:25:48.950Z,7.50
2023-05-18T03:26:49.180Z,8.30
2023-05-18T03:27:49.433Z,7.70
2023-05-18T03:28:49.802Z,7.50
2023-05-18T03:29:49.950Z,7.60
2023-05-18T03:30:50.389Z,7.90
2023-05-18T03:31:50.747Z,8.70
2023-05-18T03:32:50.944Z,8.90
2023-05-18T03:33:58.433Z,9.30
2023-05-18T03:34:51.437Z,9.60
2023-05-18T03:35:51.726Z,9.20
2023-05-18T03:36:52.027Z,8.30
2023-05-18T03:37:52.327Z,9.20
2023-05-18T03:38:52.666Z,8.70
2023-05-18T03:39:52.988Z,8.60
2023-05-18T03:40:53.287Z,8.20
2023-05-18T03:41:53.587Z,8.30
2023-05-18T03:42:53.859Z,8.00
2023-05-18T03:43:54.152Z,8.60
2023-05-18T03:44:54.437Z,8.30
2023-05-18T03:45:54.744Z,8.80
2023-05-18T03:46:55.029Z,7.60
2023-05-18T03:47:55.390Z,7.70
2023-05-18T03:48:55.659Z,8.30
2023-05-18T03:49:55.995Z,8.20
2023-05-18T03:50:56.276Z,8.00
2023-05-18T03:51:56.599Z,8.30
2023-05-18T03:52:56.892Z,8.10
2023-05-18T03:53:57.215Z,8.70
2023-05-18T03:54:57.520Z,8.90
2023-05-18T03:55:57.799Z,8.10
2023-05-18T03:56:58.100Z,9.30
2023-05-18T03:57:58.428Z,9.20
2023-05-18T03:58:58.720Z,9.00
2023-05-18T03:59:59.057Z,9.30
2023-05-18T04:00:59.334Z,8.80
2023-05-18T04:01:59.753Z,8.60
2023-05-18T04:02:59.918Z,8.40
2023-05-18T04:04:00.239Z,8.30
2023-05-18T04:05:00.451Z,8.00
2023-05-18T04:06:00.775Z,8.80
2023-05-18T04:07:01.076Z,8.60
2023-05-18T04:08:01.395Z,7.60
2023-05-18T04:09:01.699Z,7.30
2023-05-18T04:10:01.994Z,7.80
2023-05-18T04:11:02.330Z,7.50
2023-05-18T04:12:02.571Z,7.30
2023-05-18T04:13:02.882Z,7.20
2023-05-18T04:14:03.189Z,6.80
2023-05-18T04:15:03.510Z,7.30
2023-05-18T04:16:03.898Z,7.40
2023-05-18T04:17:04.074Z,6.80
2023-05-18T04:18:04.451Z,6.60
2023-05-18T04:19:06.378Z,6.90
2023-05-18T04:20:04.932Z,6.80
2023-05-18T04:21:05.218Z,7.20
2023-05-18T04:22:05.592Z,7.30
2023-05-18T04:23:05.777Z,7.30
2023-05-18T04:24:06.072Z,6.90
2023-05-18T04:25:06.384Z,6.80
2023-05-18T04:26:06.705Z,5.70
2023-05-18T04:27:07.036Z,6.40
2023-05-18T04:28:07.226Z,6.20
2023-05-18T04:29:07.546Z,6.20
2023-05-18T04:30:07.880Z,6.70
2023-05-18T04:31:08.211Z,6.20
2023-05-18T04:32:08.832Z,6.10
2023-05-18T04:33:08.935Z,6.00
2023-05-18T04:34:09.085Z,6.00
2023-05-18T04:35:09.413Z,6.20
2023-05-18T04:36:09.720Z,6.10
2023-05-18T04:37:10.071Z,6.70
2023-05-18T04:38:10.264Z,6.10
2023-05-18T04:39:10.578Z,6.40
2023-05-18T04:40:10.920Z,5.70
2023-05-18T04:41:11.247Z,6.10
2023-05-18T04:42:11.641Z,6.00
2023-05-18T04:43:11.798Z,6.00
2023-05-18T04:44:12.127Z,6.10
2023-05-18T04:45:12.458Z,6.30
2023-05-18T04:46:12.821Z,6.00
2023-05-18T04:47:13.095Z,5.60
2023-05-18T04:48:13.468Z,7.00
2023-05-18T04:49:13.660Z,5.90
2023-05-18T04:50:13.862Z,6.30
2023-05-18T04:51:14.173Z,5.80
2023-05-18T04:52:14.521Z,5.40
2023-05-18T04:53:14.733Z,5.60
2023-05-18T04:54:15.036Z,5.30
2023-05-18T04:55:15.367Z,5.40
2023-05-18T04:56:15.698Z,5.30
2023-05-18T04:57:16.040Z,5.40
2023-05-18T04:58:16.221Z,5.00
2023-05-18T04:59:16.504Z,5.30
2023-05-18T05:00:16.868Z,5.60
2023-05-18T05:01:17.257Z,4.60
2023-05-18T05:02:17.473Z,4.80
2023-05-18T05:03:17.801Z,4.90
2023-05-18T05:04:17.919Z,5.30
2023-05-18T05:05:18.268Z,4.70
2023-05-18T05:06:18.504Z,4.30
2023-05-18T05:07:18.745Z,4.10
2023-05-18T05:08:18.955Z,4.80
2023-05-18T05:09:19.302Z,3.90
2023-05-18T05:10:19.630Z,4.20
2023-05-18T05:11:20.025Z,4.10
2023-05-18T05:12:20.205Z,4.00
2023-05-18T05:13:20.517Z,4.00
2023-05-18T05:14:20.820Z,3.90
2023-05-18T05:15:21.155Z,3.80
2023-05-18T05:16:21.539Z,3.80
2023-05-18T05:17:21.854Z,4.10
2023-05-18T05:18:22.089Z,3.40
2023-05-18T05:19:22.332Z,3.50
2023-05-18T05:20:22.676Z,4.10
2023-05-18T05:21:22.886Z,3.90
2023-05-18T05:22:23.237Z,3.90
2023-05-18T05:23:23.480Z,3.30
2023-05-18T05:24:23.695Z,4.00
2023-05-18T05:25:23.884Z,4.00
2023-05-18T05:26:24.240Z,3.60
2023-05-18T05:27:24.564Z,3.60
2023-05-18T05:28:24.880Z,3.70
2023-05-18T05:29:25.224Z,3.40
2023-05-18T05:30:25.427Z,3.90
2023-05-18T05:31:25.802Z,3.50
2023-05-18T05:32:26.077Z,3.90
2023-05-18T05:33:26.231Z,3.10
2023-05-18T05:34:26.547Z,3.20
2023-05-18T05:35:26.831Z,3.70
2023-05-18T05:36:27.152Z,3.70
2023-05-18T05:37:27.517Z,3.20
2023-05-18T05:38:27.829Z,3.50
2023-05-18T05:39:28.196Z,4.00
2023-05-18T05:40:28.422Z,3.40
2023-05-18T05:41:30.021Z,3.80
2023-05-18T05:42:29.085Z,3.30
2023-05-18T05:43:29.220Z,4.10
2023-05-18T05:44:29.578Z,3.40
2023-05-18T05:45:30.077Z,3.30
2023-05-18T05:46:30.178Z,3.60
2023-05-18T05:47:30.443Z,2.90
2023-05-18T05:48:30.653Z,3.30
2023-05-18T05:49:30.877Z,3.50
2023-05-18T05:50:31.095Z,3.70
2023-05-18T05:51:31.438Z,4.00
2023-05-18T05:52:31.663Z,3.70
2023-05-18T05:53:31.999Z,3.30
2023-05-18T05:54:32.350Z,3.70
2023-05-18T05:55:32.799Z,3.50
2023-05-18T05:56:32.807Z,3.40
2023-05-18T05:57:33.157Z,3.10
2023-05-18T05:58:33.495Z,3.60
2023-05-18T05:59:33.799Z,3.70
2023-05-18T06:00:34.017Z,3.70
2023-05-18T06:01:34.319Z,3.90
2023-05-18T06:02:34.572Z,4.30
2023-05-18T06:03:36.181Z,4.10
2023-05-18T06:04:35.077Z,4.10
2023-05-18T06:05:35.300Z,4.20
2023-05-18T06:06:35.545Z,3.70
2023-05-18T06:07:35.823Z,4.10
2023-05-18T06:08:36.056Z,4.20
2023-05-18T06:09:36.285Z,4.00
2023-05-18T06:10:36.641Z,4.00
2023-05-18T06:11:36.851Z,3.70
2023-05-18T06:12:37.190Z,3.70
2023-05-18T06:13:37.444Z,3.80
2023-05-18T06:14:37.779Z,3.60
2023-05-18T06:15:37.993Z,3.50
2023-05-18T06:16:38.390Z,3.50
2023-05-18T06:17:38.621Z,3.60
2023-05-18T06:18:38.870Z,3.50
2023-05-18T06:19:39.057Z,3.80
2023-05-18T06:20:39.305Z,3.20
2023-05-18T06:21:39.648Z,3.50
2023-05-18T06:22:40.031Z,3.50
2023-05-18T06:23:41.891Z,3.50
2023-05-18T06:24:40.556Z,3.40
2023-05-18T06:25:40.803Z,3.40
2023-05-18T06:26:41.148Z,3.60
2023-05-18T06:27:41.352Z,3.50
2023-05-18T06:28:41.790Z,3.50
2023-05-18T06:29:41.948Z,3.20
2023-05-18T06:30:42.312Z,3.10
2023-05-18T06:31:42.579Z,4.00
2023-05-18T06:32:42.806Z,3.30
2023-05-18T06:33:43.054Z,3.10
2023-05-18T06:34:43.315Z,3.50
2023-05-18T06:35:43.555Z,3.10
2023-05-18T06:36:43.739Z,3.30
2023-05-18T06:37:46.694Z,3.40
2023-05-18T06:38:44.489Z,3.60
2023-05-18T06:39:44.681Z,3.50
2023-05-18T06:40:44.867Z,3.50
2023-05-18T06:41:45.242Z,3.50
2023-05-18T06:42:45.475Z,3.10
2023-05-18T06:43:45.739Z,3.50
2023-05-18T06:44:46.059Z,3.70
2023-05-18T06:45:46.314Z,3.70
2023-05-18T06:46:46.644Z,3.70
2023-05-18T06:47:46.899Z,4.00
2023-05-18T06:48:47.195Z,3.40
2023-05-18T06:49:47.353Z,3.30
2023-05-18T06:50:47.710Z,3.40
2023-05-18T06:51:48.071Z,3.60
2023-05-18T06:52:48.335Z,3.40
2023-05-18T06:53:48.521Z,3.30
2023-05-18T06:54:48.926Z,3.00
2023-05-18T06:55:49.141Z,3.60
2023-05-18T06:56:49.423Z,3.40
2023-05-18T06:57:49.636Z,3.50
2023-05-18T06:58:49.865Z,3.70
2023-05-18T06:59:50.119Z,3.40
2023-05-18T07:00:50.537Z,3.40
2023-05-18T07:01:50.757Z,3.30
2023-05-18T07:02:50.998Z,3.60
2023-05-18T07:03:51.165Z,3.50
2023-05-18T07:04:51.444Z,2.80
2023-05-18T07:05:51.637Z,3.20
2023-05-18T07:06:51.958Z,3.10
2023-05-18T07:07:52.334Z,2.80
2023-05-18T07:08:52.597Z,3.30
2023-05-18T07:09:52.782Z,3.60
2023-05-18T07:10:53.032Z,3.40
2023-05-18T07:11:53.279Z,3.60
2023-05-18T07:12:53.519Z,2.70
2023-05-18T07:13:53.904Z,3.40
2023-05-18T07:14:54.061Z,3.70
2023-05-18T07:15:54.346Z,3.40
2023-05-18T07:16:54.571Z,3.20
2023-05-18T07:17:54.867Z,3.40
2023-05-18T07:18:55.190Z,3.40
2023-05-18T07:19:55.350Z,3.70
2023-05-18T07:20:55.664Z,3.60
2023-05-18T07:21:56.017Z,3.20
2023-05-18T07:22:56.227Z,3.10
2023-05-18T07:23:56.620Z,3.60
2023-05-18T07:24:56.809Z,3.40
2023-05-18T07:25:57.012Z,3.70
2023-05-18T07:26:58.856Z,3.70
2023-05-18T07:27:57.683Z,3.10
2023-05-18T07:28:57.900Z,3.40
2023-05-18T07:29:58.232Z,3.40
2023-05-18T07:30:58.571Z,3.10
2023-05-18T07:31:58.954Z,2.90
2023-05-18T07:32:59.220Z,3.10
2023-05-18T07:33:59.358Z,3.40
2023-05-18T07:34:59.606Z,3.50
2023-05-18T07:35:59.943Z,3.60
2023-05-18T07:37:00.185Z,4.00
2023-05-18T07:38:00.411Z,3.00
2023-05-18T07:39:00.778Z,3.00
2023-05-18T07:40:01.019Z,3.80
2023-05-18T07:41:01.220Z,3.80
2023-05-18T07:42:01.452Z,3.30
2023-05-18T07:43:01.804Z,3.30
2023-05-18T07:44:02.039Z,3.50
2023-05-18T07:45:02.290Z,3.10
2023-05-18T07:46:02.552Z,3.60
2023-05-18T07:47:02.864Z,3.60
2023-05-18T07:48:03.204Z,3.10
2023-05-18T07:49:03.425Z,3.50
2023-05-18T07:50:03.651Z,3.10
2023-05-18T07:51:03.880Z,3.30
2023-05-18T07:52:04.115Z,3.40
2023-05-18T07:53:04.349Z,3.10
2023-05-18T07:54:04.708Z,3.30
2023-05-18T07:55:04.993Z,3.00
2023-05-18T07:56:05.177Z,3.10
2023-05-18T07:57:05.464Z,3.20
2023-05-18T07:58:05.714Z,3.30
2023-05-18T07:59:05.936Z,3.30
2023-05-18T08:00:06.252Z,3.10
2023-05-18T08:01:06.438Z,3.10
2023-05-18T08:02:06.735Z,3.30
2023-05-18T08:03:07.141Z,3.00
2023-05-18T08:04:07.409Z,3.10
2023-05-18T08:05:07.609Z,3.20
2023-05-18T08:06:07.967Z,3.50
2023-05-18T08:07:08.150Z,3.60
2023-05-18T08:08:08.511Z,3.10
2023-05-18T08:09:08.742Z,3.20
2023-05-18T08:10:08.983Z,3.50
2023-05-18T08:11:09.236Z,3.00
2023-05-18T08:12:09.601Z,3.40
2023-05-18T08:13:09.874Z,3.10
2023-05-18T08:14:10.088Z,3.10
2023-05-18T08:15:10.318Z,3.30
2023-05-18T08:16:12.122Z,3.20
2023-05-18T08:17:10.954Z,3.10
2023-05-18T08:18:11.174Z,2.70
2023-05-18T08:19:11.421Z,3.30
2023-05-18T08:20:11.784Z,2.70
2023-05-18T08:21:11.996Z,2.90
2023-05-18T08:22:12.222Z,3.20
2023-05-18T08:23:12.599Z,3.00
2023-05-18T08:24:12.811Z,3.40
2023-05-18T08:25:13.016Z,2.90
2023-05-18T08:26:14.078Z,3.00
2023-05-18T08:27:13.704Z,3.20
2023-05-18T08:28:14.038Z,3.10
2023-05-18T08:29:14.386Z,2.90
2023-05-18T08:30:14.617Z,3.00
2023-05-18T08:31:14.983Z,3.30
2023-05-18T08:32:15.301Z,3.00
2023-05-18T08:33:15.497Z,3.50
2023-05-18T08:34:15.772Z,2.80
2023-05-18T08:35:16.108Z,3.20
2023-05-18T08:36:16.311Z,3.40
2023-05-18T08:37:16.658Z,3.00
2023-05-18T08:38:16.983Z,3.10
2023-05-18T08:39:17.320Z,2.70
2023-05-18T08:40:17.543Z,3.00
2023-05-18T08:41:17.863Z,3.10
2023-05-18T08:42:18.218Z,2.90
2023-05-18T08:43:18.399Z,3.00
2023-05-18T08:44:18.829Z,3.10
2023-05-18T08:45:19.079Z,2.70
2023-05-18T08:46:19.305Z,3.00
2023-05-18T08:47:19.618Z,2.90
2023-05-18T08:48:19.999Z,2.70
2023-05-18T08:49:20.156Z,2.90
2023-05-18T08:50:21.991Z,2.80
2023-05-18T08:51:20.827Z,2.90
2023-05-18T08:52:21.093Z,2.70
2023-05-18T08:53:21.390Z,2.90
2023-05-18T08:54:21.749Z,2.60
2023-05-18T08:55:22.043Z,3.00
2023-05-18T08:56:22.398Z,3.00
2023-05-18T08:57:22.685Z,3.40
2023-05-18T08:58:23.063Z,2.90
2023-05-18T08:59:23.410Z,3.00
2023-05-18T09:00:24.384Z,2.90
2023-05-18T09:01:23.941Z,2.90
2023-05-18T09:02:24.109Z,2.80
2023-05-18T09:03:24.426Z,2.70
2023-05-18T09:04:24.821Z,2.80
2023-05-18T09:05:25.088Z,2.70
2023-05-18T09:06:25.298Z,3.20
2023-05-18T09:07:25.627Z,2.70
2023-05-18T09:08:25.981Z,2.90
2023-05-18T09:09:26.256Z,2.80
2023-05-18T09:10:26.582Z,2.90
2023-05-18T09:11:26.965Z,2.60
2023-05-18T09:12:27.217Z,3.20
2023-05-18T09:13:27.564Z,2.50
2023-05-18T09:14:27.901Z,2.70
2023-05-18T09:15:28.188Z,2.60
2023-05-18T09:16:28.606Z,2.90
2023-05-18T09:17:28.825Z,2.80
2023-05-18T09:18:29.107Z,2.50
2023-05-18T09:19:29.521Z,3.00
2023-05-18T09:20:29.654Z,3.00
2023-05-18T09:21:29.975Z,3.10
2023-05-18T09:22:30.284Z,2.60
2023-05-18T09:23:30.610Z,2.90
2023-05-18T09:24:30.966Z,2.70
2023-05-18T09:25:31.548Z,3.30
2023-05-18T09:26:47.301Z,2.90
2023-05-18T09:27:31.838Z,2.90
2023-05-18T09:28:32.151Z,2.60
2023-05-18T09:29:33.899Z,2.70
2023-05-18T09:30:32.762Z,3.20
2023-05-18T09:31:33.104Z,2.80
2023-05-18T09:32:33.310Z,2.80
2023-05-18T09:33:33.746Z,2.70
2023-05-18T09:34:33.957Z,3.00
2023-05-18T09:35:34.586Z,2.90
2023-05-18T09:36:34.605Z,2.80
2023-05-18T09:37:34.910Z,3.00
2023-05-18T09:38:35.187Z,3.10
2023-05-18T09:39:35.536Z,2.70
2023-05-18T09:40:35.854Z,2.70
2023-05-18T09:41:36.176Z,3.00
2023-05-18T09:42:36.511Z,2.90
2023-05-18T09:43:36.846Z,2.80
2023-05-18T09:44:37.161Z,2.80
2023-05-18T09:45:37.487Z,3.00
2023-05-18T09:46:38.005Z,3.10
2023-05-18T09:47:38.318Z,3.00
2023-05-18T09:48:38.385Z,2.80
2023-05-18T09:49:38.676Z,3.00
2023-05-18T09:50:38.977Z,3.00
2023-05-18T09:51:39.286Z,2.60
2023-05-18T09:52:39.604Z,2.70
2023-05-18T09:53:39.909Z,3.00
2023-05-18T09:54:40.217Z,3.00
2023-05-18T09:55:40.569Z,2.70
2023-05-18T09:56:40.881Z,2.90
2023-05-18T09:57:41.234Z,2.90
2023-05-18T09:58:41.532Z,2.90
2023-05-18T09:59:41.886Z,3.00
2023-05-18T10:00:42.155Z,2.80
2023-05-18T10:01:42.348Z,2.80
2023-05-18T10:02:42.688Z,2.90
2023-05-18T10:03:43.017Z,2.70
2023-05-18T10:04:43.571Z,2.90
2023-05-18T10:05:43.685Z,3.20
2023-05-18T10:06:44.013Z,3.00
2023-05-18T10:07:44.337Z,3.00
2023-05-18T10:08:44.531Z,3.00
2023-05-18T10:09:44.910Z,2.90
2023-05-18T10:10:45.156Z,2.80
2023-05-18T10:11:45.446Z,3.10
2023-05-18T10:12:45.770Z,3.50
2023-05-18T10:13:46.130Z,3.20
2023-05-18T10:14:46.419Z,2.70
2023-05-18T10:15:46.725Z,2.60
2023-05-18T10:16:47.060Z,3.10
2023-05-18T10:17:47.392Z,2.80
2023-05-18T10:18:47.588Z,2.60
2023-05-18T10:19:47.887Z,2.70
2023-05-18T10:20:48.212Z,2.50
2023-05-18T10:21:48.530Z,2.40
2023-05-18T10:22:48.877Z,2.50
2023-05-18T10:23:49.087Z,2.80
2023-05-18T10:24:49.405Z,2.70
2023-05-18T10:25:49.734Z,2.40
2023-05-18T10:26:51.958Z,2.50
2023-05-18T10:27:50.341Z,3.00
2023-05-18T10:28:50.635Z,2.70
2023-05-18T10:29:50.953Z,2.70
2023-05-18T10:30:51.349Z,2.30
2023-05-18T10:31:51.583Z,2.40
2023-05-18T10:32:51.962Z,3.00
2023-05-18T10:33:52.218Z,2.80
2023-05-18T10:34:52.553Z,3.20
2023-05-18T10:35:52.922Z,2.70
2023-05-18T10:36:53.216Z,2.40
2023-05-18T10:37:53.501Z,2.80
2023-05-18T10:38:53.821Z,2.50
2023-05-18T10:39:54.147Z,2.30
2023-05-18T10:40:54.418Z,2.60
2023-05-18T10:41:54.717Z,2.70
2023-05-18T10:42:55.051Z,2.60
2023-05-18T10:43:55.338Z,2.70
2023-05-18T10:44:55.651Z,3.10
2023-05-18T10:45:56.042Z,2.60
2023-05-18T10:46:56.336Z,3.10
2023-05-18T10:47:56.623Z,2.70
2023-05-18T10:48:56.919Z,2.70
2023-05-18T10:49:57.163Z,2.40
2023-05-18T10:50:57.426Z,2.70
2023-05-18T10:51:57.766Z,2.50
2023-05-18T10:52:57.987Z,2.80
2023-05-18T10:53:58.311Z,2.60
2023-05-18T10:54:58.652Z,2.80
2023-05-18T10:55:58.877Z,3.10
2023-05-18T10:56:59.189Z,2.80
2023-05-18T10:57:59.527Z,2.50
2023-05-18T10:58:59.794Z,2.30
2023-05-18T11:00:00.155Z,3.10
2023-05-18T11:01:00.426Z,2.30
2023-05-18T11:02:00.752Z,2.80
2023-05-18T11:03:01.113Z,2.50
2023-05-18T11:04:01.420Z,2.70
2023-05-18T11:05:01.795Z,2.70
2023-05-18T11:06:01.989Z,2.50
2023-05-18T11:07:02.288Z,2.70
2023-05-18T11:08:02.604Z,2.80
2023-05-18T11:09:02.944Z,2.50
2023-05-18T11:10:03.286Z,2.20
2023-05-18T11:11:03.631Z,2.60
2023-05-18T11:12:03.877Z,2.30
2023-05-18T11:13:04.207Z,2.90
2023-05-18T11:14:04.545Z,2.50
2023-05-18T11:15:04.878Z,2.20
2023-05-18T11:16:05.434Z,2.70
2023-05-18T11:17:05.437Z,2.60
2023-05-18T11:18:05.818Z,2.80
2023-05-18T11:19:06.126Z,2.80
2023-05-18T11:20:06.449Z,2.70
2023-05-18T11:21:06.740Z,2.70
2023-05-18T11:22:07.054Z,3.00
2023-05-18T11:23:07.347Z,2.60
2023-05-18T11:24:07.683Z,2.80
2023-05-18T11:25:08.028Z,2.70
2023-05-18T11:26:08.264Z,2.60
2023-05-18T11:27:08.469Z,2.50
2023-05-18T11:28:08.753Z,3.00
2023-05-18T11:29:09.098Z,2.60
2023-05-18T11:31:10.601Z,2.70
2023-05-18T11:32:09.863Z,2.70
2023-05-18T11:33:10.329Z,3.00
2023-05-18T11:34:10.483Z,2.30
2023-05-18T11:35:10.827Z,2.80
2023-05-18T11:36:11.167Z,2.60
2023-05-18T11:37:11.516Z,2.80
2023-05-18T11:38:11.703Z,2.80
2023-05-18T11:39:12.080Z,2.40
2023-05-18T11:40:12.283Z,2.80
2023-05-18T11:41:12.514Z,2.80
2023-05-18T11:42:12.855Z,2.70
2023-05-18T11:43:13.165Z,2.90
2023-05-18T11:44:13.501Z,2.50
2023-05-18T11:45:13.764Z,2.90
2023-05-18T11:46:14.093Z,2.40
2023-05-18T11:47:14.448Z,2.50
2023-05-18T11:48:14.837Z,2.50
2023-05-18T11:49:15.135Z,2.70
2023-05-18T11:50:15.345Z,2.40
2023-05-18T11:51:15.725Z,2.70
2023-05-18T11:52:16.011Z,3.00
2023-05-18T11:53:16.341Z,2.40
2023-05-18T11:54:16.660Z,2.60
2023-05-18T11:55:16.977Z,2.70
2023-05-18T11:56:17.333Z,2.40
2023-05-18T11:57:18.495Z,2.40
2023-05-18T11:58:17.921Z,2.60
2023-05-18T11:59:18.271Z,2.80
2023-05-18T12:00:18.609Z,2.60
2023-05-18T12:01:18.950Z,2.30
2023-05-18T12:02:19.272Z,2.60
2023-05-18T12:03:19.601Z,2.60
2023-05-18T12:04:20.031Z,2.50
2023-05-18T12:05:20.201Z,2.40
2023-05-18T12:06:20.507Z,2.60
2023-05-18T12:07:20.892Z,2.40
2023-05-18T12:08:21.133Z,2.50
2023-05-18T12:09:21.480Z,2.70
2023-05-18T12:10:21.806Z,2.80
2023-05-18T12:11:22.125Z,2.30
2023-05-18T12:12:22.431Z,2.20
2023-05-18T12:13:22.750Z,2.80
2023-05-18T12:14:23.089Z,2.50
2023-05-18T12:15:23.399Z,2.40
2023-05-18T12:16:23.759Z,2.60
2023-05-18T12:17:24.061Z,2.80
2023-05-18T12:18:24.385Z,2.40
2023-05-18T12:19:24.777Z,2.40
2023-05-18T12:20:25.214Z,3.20
2023-05-18T12:21:25.309Z,2.90
2023-05-18T12:22:25.617Z,2.40
2023-05-18T12:23:25.946Z,2.40
2023-05-18T12:24:26.278Z,2.60
2023-05-18T12:25:26.606Z,2.40
2023-05-18T12:26:26.888Z,2.90
2023-05-18T12:27:27.220Z,2.80
2023-05-18T12:28:27.504Z,2.50
2023-05-18T12:29:27.857Z,2.40
2023-05-18T12:30:28.161Z,2.60
2023-05-18T12:31:28.575Z,3.00
2023-05-18T12:32:28.742Z,2.40
2023-05-18T12:33:29.073Z,2.70
2023-05-18T12:34:29.394Z,2.80
2023-05-18T12:35:29.946Z,2.60
2023-05-18T12:36:29.975Z,2.60
2023-05-18T12:37:37.983Z,2.50
2023-05-18T12:38:31.547Z,2.40
2023-05-18T12:39:30.854Z,2.60
2023-05-18T12:40:31.175Z,2.50
2023-05-18T12:41:31.480Z,2.40
2023-05-18T12:42:31.773Z,2.30
2023-05-18T12:43:32.094Z,2.20
2023-05-18T12:44:32.398Z,2.40
2023-05-18T12:45:32.964Z,2.50
2023-05-18T12:46:33.116Z,2.30
2023-05-18T12:47:33.350Z,2.60
2023-05-18T12:48:33.651Z,2.40
2023-05-18T12:49:33.835Z,2.50
2023-05-18T12:50:34.126Z,2.20
2023-05-18T12:51:34.427Z,2.70
2023-05-18T12:52:34.743Z,2.70
2023-05-18T12:53:35.067Z,2.30
2023-05-18T12:54:35.360Z,2.20
2023-05-18T12:55:35.809Z,2.40
2023-05-18T12:56:35.974Z,2.70
2023-05-18T12:57:36.192Z,2.10
2023-05-18T12:58:36.492Z,2.60
2023-05-18T12:59:36.839Z,2.20
2023-05-18T13:00:37.121Z,2.20
2023-05-18T13:01:37.522Z,2.30
2023-05-18T13:02:37.922Z,2.80
2023-05-18T13:03:38.169Z,2.30
2023-05-18T13:04:38.327Z,2.30
2023-05-18T13:05:38.633Z,2.10
2023-05-18T13:06:38.954Z,2.40
2023-05-18T13:07:39.248Z,2.20
2023-05-18T13:08:39.598Z,2.40
2023-05-18T13:09:39.903Z,2.50
2023-05-18T13:10:40.802Z,2.50
2023-05-18T13:11:40.501Z,2.60
2023-05-18T13:12:40.799Z,2.20
2023-05-18T13:13:41.110Z,2.10
2023-05-18T13:14:41.404Z,2.50
2023-05-18T13:15:41.741Z,2.20
2023-05-18T13:16:42.088Z,2.70
2023-05-18T13:17:42.430Z,3.00
2023-05-18T13:18:42.736Z,2.30
2023-05-18T13:19:43.039Z,2.70
2023-05-18T13:20:43.369Z,2.00
2023-05-18T13:21:43.711Z,2.30
2023-05-18T13:22:44.030Z,2.20
2023-05-18T13:23:44.358Z,1.80
2023-05-18T13:24:44.645Z,2.40
2023-05-18T13:25:44.965Z,2.30
2023-05-18T13:26:45.298Z,2.40
2023-05-18T13:27:45.634Z,2.70